Time;durP1;ratioP1;P1;durP2;ratioP2;P2;SDS_P1;SDS_P2;PMS_P1;PMS_P2;Temp;Humidity;BMP_temperature;BMP_pressure;BME280_temperature;BME280_humidity;BME280_pressure;Samples;Min_cycle;Max_cycle;Signal;HPM_P1;HPM_P2
2022/06/08 00:01:37;;;;;;;20.15;8.23;;;;;;;;;;4971321;28;20054;-89
2022/06/08 00:04:04;;;;;;;14.35;7.72;;;;;;;;;;4971995;28;20022;-90
2022/06/08 00:06:30;;;;;;;20.52;7.22;;;;;;;;;;4986090;28;20069;-90
2022/06/08 00:08:56;;;;;;;18.27;7.18;;;;;;;;;;4968165;28;20486;-90
2022/06/08 00:11:22;;;;;;;18.92;7.90;;;;;;;;;;4971380;28;20034;-90
2022/06/08 00:13:48;;;;;;;19.45;7.70;;;;;;;;;;4969719;28;20165;-90
2022/06/08 00:16:14;;;;;;;16.35;7.55;;;;;;;;;;4982317;28;20034;-90
2022/06/08 00:18:41;;;;;;;19.95;7.15;;;;;;;;;;4972359;28;20490;-89
2022/06/08 00:21:09;;;;;;;16.17;7.60;;;;;;;;;;4982520;28;20057;-90
2022/06/08 00:23:35;;;;;;;14.65;6.75;;;;;;;;;;4973076;28;20125;-89
2022/06/08 00:26:01;;;;;;;12.20;7.63;;;;;;;;;;4966814;28;20062;-90
2022/06/08 00:28:27;;;;;;;17.23;7.85;;;;;;;;;;4973813;28;20068;-90
2022/06/08 00:30:53;;;;;;;16.77;7.55;;;;;;;;;;4981469;28;20467;-90
2022/06/08 00:33:19;;;;;;;22.75;8.63;;;;;;;;;;4972495;28;20022;-89
2022/06/08 00:35:45;;;;;;;16.85;8.60;;;;;;;;;;4970496;28;20558;-90
2022/06/08 00:38:11;;;;;;;19.77;8.10;;;;;;;;;;4967827;28;20034;-89
2022/06/08 00:40:56;;;;;;;21.83;8.35;;;;;;;;;;4973155;28;20568;-89
2022/06/08 00:43:22;;;;;;;11.52;7.40;;;;;;;;;;4983382;28;20037;-89
2022/06/08 00:45:48;;;;;;;13.20;6.63;;;;;;;;;;4970217;28;20478;-89
2022/06/08 00:48:15;;;;;;;18.75;6.90;;;;;;;;;;4971071;28;20046;-90
2022/06/08 00:50:50;;;;;;;13.60;5.80;;;;;;;;;;4971385;28;20061;-89
2022/06/08 00:53:18;;;;;;;10.00;5.82;;;;;;;;;;4988547;28;20073;-89
2022/06/08 00:55:44;;;;;;;16.98;7.13;;;;;;;;;;4972935;28;20708;-91
2022/06/08 00:58:23;;;;;;;14.57;7.03;;;;;;;;;;4975603;28;20469;-92
2022/06/08 01:00:50;;;;;;;17.50;7.85;;;;;;;;;;4962176;28;20030;-92
2022/06/08 01:03:16;;;;;;;15.40;6.47;;;;;;;;;;4970557;28;20049;-92
2022/06/08 01:05:44;;;;;;;19.15;7.65;;;;;;;;;;4979078;28;20050;-91
2022/06/08 01:08:30;;;;;;;16.15;6.10;;;;;;;;;;4981504;28;20027;-92
2022/06/08 01:10:58;;;;;;;14.27;6.22;;;;;;;;;;4986881;28;20427;-92
2022/06/08 01:13:24;;;;;;;14.70;6.55;;;;;;;;;;4963145;28;20026;-91
2022/06/08 01:15:51;;;;;;;12.05;6.93;;;;;;;;;;4972355;28;20056;-92
2022/06/08 01:18:17;;;;;;;13.15;6.85;;;;;;;;;;4970161;28;20093;-91
2022/06/08 01:20:54;;;;;;;14.10;6.45;;;;;;;;;;4969665;28;20050;-90
2022/06/08 01:23:20;;;;;;;14.60;6.45;;;;;;;;;;4969686;28;20613;-90
2022/06/08 01:26:02;;;;;;;14.40;6.85;;;;;;;;;;4968668;28;20035;-91
2022/06/08 01:28:37;;;;;;;13.48;6.38;;;;;;;;;;4961890;28;20026;-91
2022/06/08 01:31:10;;;;;;;19.50;6.20;;;;;;;;;;4964656;28;20466;-90
2022/06/08 01:33:47;;;;;;;9.23;5.80;;;;;;;;;;4973153;28;20474;-90
2022/06/08 01:36:22;;;;;;;17.98;6.82;;;;;;;;;;4982027;28;20092;-90
2022/06/08 01:38:55;;;;;;;17.48;6.28;;;;;;;;;;4970399;28;20047;-90
2022/06/08 01:41:39;;;;;;;14.50;6.55;;;;;;;;;;4965713;28;20054;-91
2022/06/08 01:44:18;;;;;;;20.10;6.38;;;;;;;;;;4969432;28;20026;-91
2022/06/08 01:46:58;;;;;;;15.07;7.22;;;;;;;;;;4967891;28;20026;-91
2022/06/08 01:49:30;;;;;;;17.90;6.35;;;;;;;;;;4976941;28;20069;-92
2022/06/08 01:52:15;;;;;;;17.48;7.72;;;;;;;;;;4967136;28;20022;-92
2022/06/08 01:55:00;;;;;;;17.27;7.32;;;;;;;;;;4982162;28;20033;-92
2022/06/08 01:57:29;;;;;;;19.60;6.78;;;;;;;;;;4988294;28;20035;-92
2022/06/08 02:00:01;;;;;;;14.10;7.35;;;;;;;;;;4970681;28;20062;-91
2022/06/08 02:02:46;;;;;;;18.25;7.40;;;;;;;;;;4969800;28;20054;-91
2022/06/08 02:05:26;;;;;;;17.50;7.97;;;;;;;;;;4969368;28;20379;-91
2022/06/08 02:07:57;;;;;;;27.05;8.18;;;;;;;;;;4966856;28;20034;-91
2022/06/08 02:10:26;;;;;;;20.25;8.60;;;;;;;;;;4981626;28;20108;-91
2022/06/08 02:12:59;;;;;;;15.32;8.00;;;;;;;;;;4983209;28;20030;-91
2022/06/08 02:15:31;;;;;;;23.17;7.57;;;;;;;;;;4967957;28;21005;-91
2022/06/08 02:17:59;;;;;;;16.30;7.63;;;;;;;;;;4968649;28;20038;-91
2022/06/08 02:20:35;;;;;;;20.35;7.63;;;;;;;;;;4969080;28;20030;-92
2022/06/08 02:23:28;;;;;;;13.68;7.28;;;;;;;;;;4980667;28;20394;-92
2022/06/08 02:26:00;;;;;;;18.55;7.63;;;;;;;;;;4942769;28;20054;-91
2022/06/08 02:28:35;;;;;;;12.85;7.30;;;;;;;;;;4984759;28;20084;-91
2022/06/08 02:31:07;;;;;;;13.98;7.07;;;;;;;;;;4963312;28;20080;-91
2022/06/08 02:36:30;;;;;;;14.18;6.35;;;;;;;;;;4979833;28;20053;-91
2022/06/08 02:39:03;;;;;;;13.10;6.35;;;;;;;;;;4958666;28;20058;-91
2022/06/08 02:41:30;;;;;;;12.13;6.63;;;;;;;;;;4969858;28;20053;-90
2022/06/08 02:44:02;;;;;;;19.52;7.22;;;;;;;;;;4982715;28;20044;-91
2022/06/08 02:46:31;;;;;;;10.65;6.45;;;;;;;;;;4965598;28;20398;-92
2022/06/08 02:49:03;;;;;;;15.88;6.90;;;;;;;;;;4966763;28;20026;-91
2022/06/08 02:51:30;;;;;;;10.50;6.03;;;;;;;;;;4965546;28;20022;-92
2022/06/08 02:53:59;;;;;;;11.45;6.55;;;;;;;;;;4964820;28;20041;-92
2022/06/08 02:56:26;;;;;;;14.60;7.40;;;;;;;;;;4969558;28;20109;-92
2022/06/08 02:58:58;;;;;;;10.93;6.28;;;;;;;;;;4967423;28;20057;-92
2022/06/08 03:01:47;;;;;;;20.33;6.75;;;;;;;;;;4986705;28;20073;-91
2022/06/08 03:04:26;;;;;;;17.90;6.57;;;;;;;;;;4961941;28;20042;-91
2022/06/08 03:07:04;;;;;;;13.27;6.57;;;;;;;;;;4967271;28;20490;-91
2022/06/08 03:09:31;;;;;;;13.98;6.25;;;;;;;;;;4984301;28;20254;-92
2022/06/08 03:12:00;;;;;;;12.68;5.88;;;;;;;;;;4985385;28;20443;-92
2022/06/08 03:14:28;;;;;;;17.30;6.70;;;;;;;;;;4974169;28;20117;-91
2022/06/08 03:16:59;;;;;;;21.65;6.85;;;;;;;;;;4966568;28;20046;-91
2022/06/08 03:19:32;;;;;;;18.70;7.00;;;;;;;;;;4973510;28;20073;-92
2022/06/08 03:21:58;;;;;;;13.57;7.10;;;;;;;;;;4982906;28;20027;-90
2022/06/08 03:24:25;;;;;;;23.00;6.97;;;;;;;;;;4974120;28;20378;-91
2022/06/08 03:26:53;;;;;;;11.38;6.75;;;;;;;;;;4985893;28;20072;-91
2022/06/08 03:29:27;;;;;;;17.27;7.03;;;;;;;;;;4982667;28;20038;-91
2022/06/08 03:31:53;;;;;;;13.38;6.50;;;;;;;;;;4982768;28;20034;-91
2022/06/08 03:34:20;;;;;;;21.02;7.75;;;;;;;;;;4987430;28;20034;-92
2022/06/08 03:36:46;;;;;;;13.10;7.18;;;;;;;;;;4963746;28;20050;-90
2022/06/08 03:39:12;;;;;;;18.05;6.93;;;;;;;;;;4981713;28;20553;-91
2022/06/08 03:41:38;;;;;;;19.80;8.15;;;;;;;;;;4972904;28;20129;-92
2022/06/08 03:44:05;;;;;;;24.52;8.35;;;;;;;;;;4972772;28;20512;-91
2022/06/08 03:46:35;;;;;;;20.05;8.30;;;;;;;;;;4972516;28;20092;-93
2022/06/08 03:49:01;;;;;;;16.70;7.38;;;;;;;;;;4971885;28;20494;-92
2022/06/08 03:51:28;;;;;;;17.20;7.57;;;;;;;;;;4968958;28;20126;-90
2022/06/08 03:53:56;;;;;;;23.25;8.77;;;;;;;;;;4986947;28;20022;-92
2022/06/08 03:56:24;;;;;;;22.52;8.88;;;;;;;;;;4967897;28;20105;-91
2022/06/08 03:58:50;;;;;;;19.15;8.88;;;;;;;;;;4970652;28;20112;-92
2022/06/08 04:01:16;;;;;;;21.65;8.38;;;;;;;;;;4984968;28;20030;-90
2022/06/08 04:03:42;;;;;;;25.30;8.80;;;;;;;;;;4972465;28;20034;-90
2022/06/08 04:06:09;;;;;;;35.80;8.98;;;;;;;;;;4973121;28;20030;-91
2022/06/08 04:08:36;;;;;;;24.45;9.40;;;;;;;;;;4973194;28;20035;-91
2022/06/08 04:11:02;;;;;;;20.95;9.93;;;;;;;;;;4966827;28;20039;-91
2022/06/08 04:13:28;;;;;;;23.33;9.43;;;;;;;;;;4973956;28;20095;-91
2022/06/08 04:15:54;;;;;;;25.38;9.93;;;;;;;;;;4971832;28;20030;-90
2022/06/08 04:18:23;;;;;;;22.70;9.50;;;;;;;;;;4968595;28;20022;-91
2022/06/08 04:20:53;;;;;;;23.13;10.35;;;;;;;;;;4980992;28;20045;-90
2022/06/08 04:23:20;;;;;;;21.50;10.25;;;;;;;;;;4970597;28;20118;-91
2022/06/08 04:25:47;;;;;;;22.63;9.85;;;;;;;;;;4965880;28;20034;-91
2022/06/08 04:28:13;;;;;;;25.73;10.90;;;;;;;;;;4969619;28;20512;-90
2022/06/08 04:30:39;;;;;;;21.90;9.82;;;;;;;;;;4967828;28;20033;-91
2022/06/08 04:33:06;;;;;;;23.27;11.20;;;;;;;;;;4970313;28;20533;-91
2022/06/08 04:35:32;;;;;;;22.67;10.57;;;;;;;;;;4969138;28;20207;-91
2022/06/08 04:37:59;;;;;;;24.13;11.38;;;;;;;;;;4966550;28;20034;-90
2022/06/08 04:40:25;;;;;;;22.45;11.50;;;;;;;;;;4970438;28;20073;-90
2022/06/08 04:42:51;;;;;;;26.85;11.85;;;;;;;;;;4965955;28;20034;-91
2022/06/08 04:45:18;;;;;;;28.52;12.30;;;;;;;;;;4961499;28;20022;-91
2022/06/08 04:47:44;;;;;;;24.67;12.88;;;;;;;;;;4977824;28;20034;-90
2022/06/08 04:50:10;;;;;;;32.33;11.88;;;;;;;;;;4966344;28;20406;-90
2022/06/08 04:52:37;;;;;;;23.25;10.90;;;;;;;;;;4972078;28;20491;-90
2022/06/08 04:55:04;;;;;;;22.90;11.50;;;;;;;;;;4968904;28;20094;-91
2022/06/08 04:57:33;;;;;;;20.15;10.50;;;;;;;;;;4968177;28;20030;-90
2022/06/08 05:00:00;;;;;;;19.75;10.93;;;;;;;;;;4981391;28;20033;-92
2022/06/08 05:02:44;;;;;;;17.42;10.65;;;;;;;;;;4972162;28;20524;-92
2022/06/08 05:05:30;;;;;;;23.77;10.93;;;;;;;;;;4968411;28;20018;-90
2022/06/08 05:07:57;;;;;;;28.27;11.32;;;;;;;;;;4968992;28;20034;-91
2022/06/08 05:10:24;;;;;;;20.52;11.15;;;;;;;;;;4969963;28;20030;-91
2022/06/08 05:12:50;;;;;;;26.77;12.05;;;;;;;;;;4971111;28;20080;-91
2022/06/08 05:15:21;;;;;;;30.73;12.50;;;;;;;;;;4965964;28;20474;-90
2022/06/08 05:17:47;;;;;;;29.33;13.98;;;;;;;;;;4967268;28;20041;-90
2022/06/08 05:20:16;;;;;;;26.70;13.57;;;;;;;;;;4968898;28;20398;-89
2022/06/08 05:22:42;;;;;;;33.38;15.20;;;;;;;;;;4970520;28;20120;-92
2022/06/08 05:25:10;;;;;;;38.28;16.63;;;;;;;;;;4965817;28;20030;-91
2022/06/08 05:27:36;;;;;;;35.45;15.75;;;;;;;;;;4971726;28;20405;-90
2022/06/08 05:30:02;;;;;;;33.08;16.85;;;;;;;;;;4971025;28;20109;-91
2022/06/08 05:32:28;;;;;;;30.08;13.30;;;;;;;;;;4963425;28;20030;-91
2022/06/08 05:34:54;;;;;;;35.05;16.40;;;;;;;;;;4969784;28;20018;-90
2022/06/08 05:37:20;;;;;;;41.03;15.45;;;;;;;;;;4969122;28;20042;-91
2022/06/08 05:39:47;;;;;;;26.92;14.98;;;;;;;;;;4967869;28;20027;-91
2022/06/08 05:42:19;;;;;;;35.80;17.25;;;;;;;;;;4968352;28;20415;-91
2022/06/08 05:44:45;;;;;;;31.55;14.52;;;;;;;;;;4968361;28;20038;-91
2022/06/08 05:47:12;;;;;;;32.47;14.40;;;;;;;;;;4962545;28;20041;-90
2022/06/08 05:49:39;;;;;;;30.08;14.70;;;;;;;;;;4985740;28;20105;-90
2022/06/08 05:52:07;;;;;;;39.20;15.50;;;;;;;;;;4965759;28;21226;-91
2022/06/08 05:54:33;;;;;;;29.02;15.82;;;;;;;;;;4978754;28;20037;-91
2022/06/08 05:57:00;;;;;;;31.75;15.63;;;;;;;;;;4968171;28;20044;-92
2022/06/08 05:59:26;;;;;;;33.38;15.38;;;;;;;;;;4968792;28;20048;-92
2022/06/08 06:01:52;;;;;;;31.02;15.70;;;;;;;;;;4973490;28;20045;-92
2022/06/08 06:04:19;;;;;;;33.92;15.55;;;;;;;;;;4967679;28;20040;-90
2022/06/08 06:06:48;;;;;;;36.63;15.30;;;;;;;;;;4984069;28;20049;-90
2022/06/08 06:09:15;;;;;;;29.75;15.00;;;;;;;;;;4967739;28;20088;-91
2022/06/08 06:11:41;;;;;;;34.83;15.57;;;;;;;;;;4969931;28;20550;-90
2022/06/08 06:14:08;;;;;;;30.10;15.00;;;;;;;;;;4967489;28;20065;-90
2022/06/08 06:16:34;;;;;;;25.10;13.48;;;;;;;;;;4966738;28;20398;-90
2022/06/08 06:19:00;;;;;;;26.17;13.40;;;;;;;;;;4962273;28;21049;-92
2022/06/08 06:21:26;;;;;;;24.20;12.70;;;;;;;;;;4983025;28;20030;-92
2022/06/08 06:23:53;;;;;;;24.27;13.00;;;;;;;;;;4966672;28;20230;-91
2022/06/08 06:26:19;;;;;;;25.67;13.15;;;;;;;;;;4969775;28;20033;-91
2022/06/08 06:28:46;;;;;;;28.33;14.00;;;;;;;;;;4980591;28;20026;-91
2022/06/08 06:31:17;;;;;;;25.05;12.88;;;;;;;;;;4969434;28;20062;-90
2022/06/08 06:33:43;;;;;;;25.05;11.80;;;;;;;;;;4984227;28;20040;-90
2022/06/08 06:36:09;;;;;;;21.98;11.80;;;;;;;;;;4967078;28;20026;-91
2022/06/08 06:38:36;;;;;;;26.67;11.57;;;;;;;;;;4968608;28;20166;-91
2022/06/08 06:41:01;;;;;;;19.48;9.90;;;;;;;;;;4972015;28;20055;-91
2022/06/08 06:43:28;;;;;;;22.80;10.13;;;;;;;;;;4971603;28;20041;-91
2022/06/08 06:45:54;;;;;;;20.40;10.27;;;;;;;;;;4977776;28;20023;-91
2022/06/08 06:48:20;;;;;;;20.60;10.00;;;;;;;;;;4967129;28;20030;-92
2022/06/08 06:50:46;;;;;;;20.23;10.75;;;;;;;;;;4968274;28;20030;-92
2022/06/08 06:53:13;;;;;;;16.25;10.40;;;;;;;;;;4972156;28;20023;-90
2022/06/08 06:55:39;;;;;;;18.75;9.45;;;;;;;;;;4980320;28;20355;-92
2022/06/08 06:58:06;;;;;;;22.08;11.43;;;;;;;;;;4968350;28;20551;-91
2022/06/08 07:00:33;;;;;;;20.20;11.25;;;;;;;;;;4968185;28;20156;-91
2022/06/08 07:02:59;;;;;;;21.35;11.13;;;;;;;;;;4966877;28;20114;-91
2022/06/08 07:05:26;;;;;;;17.58;9.70;;;;;;;;;;4969939;28;20035;-91
2022/06/08 07:07:52;;;;;;;20.88;10.10;;;;;;;;;;4975298;28;20041;-91
2022/06/08 07:10:19;;;;;;;16.90;9.65;;;;;;;;;;4971505;28;20479;-92
2022/06/08 07:12:45;;;;;;;19.73;9.63;;;;;;;;;;4972124;28;20033;-91
2022/06/08 07:15:13;;;;;;;17.63;9.80;;;;;;;;;;4983895;28;20489;-90
2022/06/08 07:17:39;;;;;;;15.20;9.32;;;;;;;;;;4986345;28;20452;-92
2022/06/08 07:20:05;;;;;;;20.88;9.75;;;;;;;;;;4981510;28;20037;-93
2022/06/08 07:22:31;;;;;;;17.00;10.20;;;;;;;;;;4971623;28;20026;-91
2022/06/08 07:24:57;;;;;;;14.80;9.73;;;;;;;;;;4993589;28;20046;-92
2022/06/08 07:27:23;;;;;;;18.10;9.63;;;;;;;;;;4979033;28;20030;-92
2022/06/08 07:29:50;;;;;;;16.08;8.85;;;;;;;;;;4966729;28;20370;-92
2022/06/08 07:32:17;;;;;;;16.42;8.80;;;;;;;;;;4989167;28;20022;-93
2022/06/08 07:34:43;;;;;;;16.25;8.00;;;;;;;;;;4970241;28;20071;-89
2022/06/08 07:37:09;;;;;;;14.52;8.10;;;;;;;;;;4970031;28;20034;-88
2022/06/08 07:39:36;;;;;;;10.48;6.82;;;;;;;;;;4967943;28;20390;-89
2022/06/08 07:42:03;;;;;;;9.70;6.35;;;;;;;;;;4983317;28;20046;-89
2022/06/08 07:44:29;;;;;;;10.65;5.68;;;;;;;;;;4974465;28;20026;-88
2022/06/08 07:47:02;;;;;;;9.50;5.10;;;;;;;;;;4970515;28;20079;-89
2022/06/08 07:49:37;;;;;;;11.52;5.68;;;;;;;;;;4972166;28;20087;-90
2022/06/08 07:52:13;;;;;;;13.40;6.27;;;;;;;;;;4969622;28;20502;-89
2022/06/08 07:54:40;;;;;;;13.27;6.72;;;;;;;;;;4986561;28;20085;-89
2022/06/08 07:57:07;;;;;;;12.13;6.72;;;;;;;;;;4972329;28;20030;-89
2022/06/08 07:59:36;;;;;;;10.63;5.63;;;;;;;;;;4970914;28;20096;-89
2022/06/08 08:02:03;;;;;;;10.85;5.57;;;;;;;;;;4961338;28;20026;-89
2022/06/08 08:04:29;;;;;;;12.38;5.63;;;;;;;;;;4972841;28;20545;-89
2022/06/08 08:06:55;;;;;;;15.30;5.93;;;;;;;;;;4963855;28;20372;-89
2022/06/08 08:09:22;;;;;;;13.73;5.07;;;;;;;;;;4972303;28;20026;-89
2022/06/08 08:11:52;;;;;;;8.80;5.55;;;;;;;;;;4974898;28;20040;-89
2022/06/08 08:14:21;;;;;;;6.95;5.07;;;;;;;;;;4970283;28;20029;-89
2022/06/08 08:16:48;;;;;;;10.02;5.03;;;;;;;;;;4961753;28;20475;-89
2022/06/08 08:19:17;;;;;;;13.05;5.43;;;;;;;;;;4972727;28;20105;-89
2022/06/08 08:21:43;;;;;;;7.22;4.35;;;;;;;;;;4966121;28;20061;-88
2022/06/08 08:24:09;;;;;;;7.93;4.28;;;;;;;;;;4971195;28;20422;-88
2022/06/08 08:26:36;;;;;;;13.32;4.63;;;;;;;;;;4966478;28;20565;-89
2022/06/08 08:29:02;;;;;;;6.90;4.28;;;;;;;;;;4969773;28;20186;-90
2022/06/08 08:31:28;;;;;;;8.75;4.60;;;;;;;;;;4964025;28;20077;-89
2022/06/08 08:33:54;;;;;;;10.07;3.78;;;;;;;;;;4967837;28;20109;-88
2022/06/08 08:36:20;;;;;;;7.13;4.18;;;;;;;;;;4970112;28;20018;-88
2022/06/08 08:38:46;;;;;;;6.55;4.25;;;;;;;;;;4976358;28;20034;-89
2022/06/08 08:44:01;;;;;;;7.35;3.33;;;;;;;;;;4990899;28;20046;-87
2022/06/08 08:46:39;;;;;;;3.08;2.17;;;;;;;;;;4979917;28;20076;-87
2022/06/08 08:49:26;;;;;;;7.50;3.78;;;;;;;;;;4972915;28;20524;-87
2022/06/08 08:52:03;;;;;;;6.13;4.00;;;;;;;;;;4984621;28;20512;-87
2022/06/08 08:54:31;;;;;;;6.53;3.47;;;;;;;;;;4982680;28;20034;-86
2022/06/08 08:57:16;;;;;;;5.53;3.47;;;;;;;;;;4973058;28;20030;-87
2022/06/08 08:59:44;;;;;;;9.30;3.70;;;;;;;;;;4983655;28;20581;-87
2022/06/08 09:03:14;;;;;;;4.60;3.45;;;;;;;;;;4987448;28;20049;-88
2022/06/08 09:05:02;;;;;;;2.83;2.10;;;;;;;;;;4990252;28;20042;-87
2022/06/08 09:07:29;;;;;;;5.32;2.80;;;;;;;;;;4973585;28;20073;-87
2022/06/08 09:09:56;;;;;;;3.53;1.58;;;;;;;;;;4976071;28;20557;-87
2022/06/08 09:12:22;;;;;;;7.25;1.90;;;;;;;;;;4966244;28;20042;-87
2022/06/08 09:14:50;;;;;;;2.13;1.35;;;;;;;;;;4973272;28;20096;-88
2022/06/08 09:17:31;;;;;;;2.13;1.40;;;;;;;;;;4970443;28;20106;-88
2022/06/08 09:19:57;;;;;;;4.32;1.42;;;;;;;;;;4980788;28;20604;-88
2022/06/08 09:22:25;;;;;;;4.70;1.55;;;;;;;;;;4973079;28;20047;-87
2022/06/08 09:24:54;;;;;;;2.30;1.52;;;;;;;;;;4974385;28;20038;-87
2022/06/08 09:27:26;;;;;;;5.70;1.70;;;;;;;;;;4964685;28;20751;-88
2022/06/08 09:30:04;;;;;;;4.80;1.55;;;;;;;;;;4981670;28;20074;-87
2022/06/08 09:32:32;;;;;;;2.50;1.38;;;;;;;;;;4989239;28;20474;-87
2022/06/08 09:35:00;;;;;;;2.30;1.60;;;;;;;;;;4970592;28;20018;-87
2022/06/08 09:37:26;;;;;;;14.02;1.73;;;;;;;;;;4970264;28;20038;-87
2022/06/08 09:39:54;;;;;;;1.90;1.42;;;;;;;;;;4982848;28;20057;-89
2022/06/08 09:42:32;;;;;;;2.30;1.67;;;;;;;;;;4972408;28;20051;-86
2022/06/08 09:44:58;;;;;;;3.97;1.70;;;;;;;;;;4984290;28;20027;-87
2022/06/08 09:53:07;;;;;;;3.97;1.60;;;;;;;;;;4991528;28;20681;-88
2022/06/08 09:55:55;;;;;;;3.70;1.40;;;;;;;;;;4962966;28;20161;-87
2022/06/08 09:58:23;;;;;;;2.97;2.10;;;;;;;;;;4971596;28;20031;-88
2022/06/08 10:00:59;;;;;;;3.55;1.35;;;;;;;;;;4968723;28;20414;-88
2022/06/08 10:03:34;;;;;;;3.70;1.95;;;;;;;;;;4968968;28;20034;-87
2022/06/08 10:06:06;;;;;;;7.95;2.40;;;;;;;;;;4964914;28;20174;-87
2022/06/08 10:08:48;;;;;;;4.47;2.00;;;;;;;;;;4985195;28;20486;-87
2022/06/08 10:11:42;;;;;;;2.63;1.85;;;;;;;;;;4967621;28;20043;-88
2022/06/08 10:14:28;;;;;;;4.68;1.90;;;;;;;;;;4974388;28;20332;-87
2022/06/08 10:16:58;;;;;;;3.30;2.33;;;;;;;;;;4970630;28;20124;-87
2022/06/08 10:19:29;;;;;;;4.85;1.70;;;;;;;;;;4969529;28;20414;-87
2022/06/08 10:21:56;;;;;;;6.80;2.25;;;;;;;;;;4963743;28;20029;-87
2022/06/08 10:24:27;;;;;;;4.72;2.10;;;;;;;;;;4985265;28;20033;-88
2022/06/08 10:26:57;;;;;;;5.50;2.08;;;;;;;;;;4974272;28;20030;-88
2022/06/08 10:29:43;;;;;;;6.22;2.53;;;;;;;;;;4970421;28;20042;-87
2022/06/08 10:32:24;;;;;;;9.57;3.42;;;;;;;;;;4982601;28;20133;-87
2022/06/08 10:34:59;;;;;;;3.30;2.40;;;;;;;;;;4987042;28;20335;-87
2022/06/08 10:37:29;;;;;;;4.50;2.47;;;;;;;;;;4980366;28;20138;-89
2022/06/08 10:39:56;;;;;;;3.03;2.53;;;;;;;;;;4972822;28;20030;-88
2022/06/08 10:42:52;;;;;;;3.75;2.60;;;;;;;;;;4987230;28;20125;-88
2022/06/08 10:45:26;;;;;;;3.83;2.80;;;;;;;;;;4980199;28;20062;-87
2022/06/08 10:47:59;;;;;;;6.18;3.03;;;;;;;;;;4961791;28;20492;-88
2022/06/08 10:50:36;;;;;;;4.70;2.60;;;;;;;;;;4970125;28;20031;-88
2022/06/08 10:56:23;;;;;;;6.25;3.22;;;;;;;;;;4985900;28;20038;-87
2022/06/08 10:58:58;;;;;;;4.35;3.13;;;;;;;;;;4971076;28;20433;-87
2022/06/08 11:01:47;;;;;;;7.55;3.25;;;;;;;;;;4965021;28;20716;-87
2022/06/08 11:04:25;;;;;;;7.30;3.65;;;;;;;;;;4924168;28;20406;-91
2022/06/08 11:06:51;;;;;;;2.85;2.60;;;;;;;;;;4968739;28;20066;-88
2022/06/08 11:09:35;;;;;;;7.60;2.83;;;;;;;;;;4968209;28;20053;-87
2022/06/08 11:12:05;;;;;;;5.55;3.20;;;;;;;;;;4963839;28;20050;-87
2022/06/08 11:14:33;;;;;;;5.82;3.10;;;;;;;;;;4959687;28;20050;-87
2022/06/08 11:17:02;;;;;;;5.35;2.50;;;;;;;;;;4962447;28;20518;-87
2022/06/08 11:19:29;;;;;;;5.60;2.85;;;;;;;;;;4969204;28;20034;-87
2022/06/08 11:22:02;;;;;;;6.65;3.80;;;;;;;;;;4970069;28;20026;-88
2022/06/08 11:24:36;;;;;;;8.32;3.72;;;;;;;;;;4973191;28;20056;-87
2022/06/08 11:27:12;;;;;;;7.32;3.55;;;;;;;;;;4976129;28;20041;-87
2022/06/08 11:29:38;;;;;;;;;;;;;;;;;;4974811;28;20022;-88
2022/06/08 11:32:04;;;;;;;6.45;3.25;;;;;;;;;;4983547;28;20381;-88
2022/06/08 11:34:46;;;;;;;7.47;3.00;;;;;;;;;;4971439;28;20427;-88
2022/06/08 11:37:20;;;;;;;4.80;2.72;;;;;;;;;;4974510;28;20038;-88
2022/06/08 11:39:53;;;;;;;4.47;3.22;;;;;;;;;;4965960;28;20025;-87
2022/06/08 11:42:25;;;;;;;4.93;2.58;;;;;;;;;;4971794;28;20070;-88
2022/06/08 11:44:56;;;;;;;8.15;2.38;;;;;;;;;;4974252;28;20409;-88
2022/06/08 11:47:37;;;;;;;5.43;2.15;;;;;;;;;;4973051;28;20043;-87
2022/06/08 11:50:14;;;;;;;10.27;2.70;;;;;;;;;;4965236;28;20431;-88
2022/06/08 11:52:41;;;;;;;4.53;2.60;;;;;;;;;;4967896;28;20061;-89
2022/06/08 11:55:12;;;;;;;8.27;3.35;;;;;;;;;;4968720;28;20097;-89
2022/06/08 11:57:45;;;;;;;4.35;2.88;;;;;;;;;;4975594;28;20453;-88
2022/06/08 12:00:17;;;;;;;7.82;3.78;;;;;;;;;;4982535;28;20399;-88
2022/06/08 12:02:44;;;;;;;15.00;4.15;;;;;;;;;;4981324;28;20478;-88
2022/06/08 12:05:10;;;;;;;7.95;4.88;;;;;;;;;;4972806;28;20042;-88
2022/06/08 12:07:41;;;;;;;12.43;4.78;;;;;;;;;;4970500;28;20038;-88
2022/06/08 12:10:10;;;;;;;12.07;4.40;;;;;;;;;;4970759;28;20034;-89
2022/06/08 12:12:36;;;;;;;10.55;4.30;;;;;;;;;;4971992;28;20042;-88
2022/06/08 12:15:35;;;;;;;12.07;4.80;;;;;;;;;;4985389;28;20286;-87
2022/06/08 12:18:19;;;;;;;7.18;4.43;;;;;;;;;;4940376;28;20081;-88
2022/06/08 12:20:46;;;;;;;13.13;6.35;;;;;;;;;;4959111;28;20035;-86
2022/06/08 12:23:12;;;;;;;10.35;5.10;;;;;;;;;;4980673;28;20508;-86
2022/06/08 12:25:41;;;;;;;13.93;5.78;;;;;;;;;;4962129;28;20038;-86
2022/06/08 12:28:07;;;;;;;7.40;4.72;;;;;;;;;;4964737;28;20406;-87
2022/06/08 12:30:47;;;;;;;7.85;5.45;;;;;;;;;;4967848;28;20034;-86
2022/06/08 12:33:16;;;;;;;8.98;5.30;;;;;;;;;;4967867;28;20109;-86
2022/06/08 12:35:52;;;;;;;10.43;5.95;;;;;;;;;;4970864;28;20045;-86
2022/06/08 12:38:20;;;;;;;9.27;5.45;;;;;;;;;;4969812;28;20034;-86
2022/06/08 12:41:05;;;;;;;8.50;4.85;;;;;;;;;;4972386;28;20463;-85
2022/06/08 12:43:35;;;;;;;14.13;5.82;;;;;;;;;;4966695;28;20050;-84
2022/06/08 12:46:17;;;;;;;8.82;5.20;;;;;;;;;;4965373;28;20397;-85
2022/06/08 12:49:09;;;;;;;27.65;7.25;;;;;;;;;;4980311;28;20522;-81
2022/06/08 12:51:43;;;;;;;7.35;4.28;;;;;;;;;;4962967;28;20141;-80
2022/06/08 12:54:12;;;;;;;13.10;4.57;;;;;;;;;;4982912;28;20513;-80
2022/06/08 12:56:38;;;;;;;13.65;5.03;;;;;;;;;;4957614;28;20030;-80
2022/06/08 12:59:04;;;;;;;8.20;3.72;;;;;;;;;;4962157;28;20435;-80
2022/06/08 13:01:30;;;;;;;8.20;2.80;;;;;;;;;;4971943;28;20539;-80
2022/06/08 13:03:57;;;;;;;6.03;2.60;;;;;;;;;;4965037;28;21450;-80
2022/06/08 13:06:26;;;;;;;9.10;2.60;;;;;;;;;;4968476;28;20058;-80
2022/06/08 13:08:52;;;;;;;6.60;1.65;;;;;;;;;;4982531;28;20096;-80
2022/06/08 13:11:20;;;;;;;5.68;2.20;;;;;;;;;;4969376;28;20471;-79
2022/06/08 13:13:47;;;;;;;8.18;2.38;;;;;;;;;;4965778;28;20478;-80
2022/06/08 13:16:28;;;;;;;2.03;1.38;;;;;;;;;;4962911;28;20027;-78
2022/06/08 13:18:55;;;;;;;8.40;2.50;;;;;;;;;;4964176;28;20411;-78
2022/06/08 13:21:22;;;;;;;7.50;2.47;;;;;;;;;;4984773;28;20502;-79
2022/06/08 13:23:48;;;;;;;5.60;2.80;;;;;;;;;;4969632;28;20412;-78
2022/06/08 13:26:23;;;;;;;6.90;3.42;;;;;;;;;;4963577;28;20535;-79
2022/06/08 13:28:49;;;;;;;9.95;4.03;;;;;;;;;;4966211;28;20439;-78
2022/06/08 13:31:23;;;;;;;19.25;4.50;;;;;;;;;;4964020;28;20477;-79
2022/06/08 13:33:56;;;;;;;13.23;4.00;;;;;;;;;;4968126;28;20133;-79
2022/06/08 13:36:22;;;;;;;13.60;4.05;;;;;;;;;;4983098;28;20139;-79
2022/06/08 13:38:49;;;;;;;6.70;4.10;;;;;;;;;;4968335;28;20030;-78
2022/06/08 13:41:15;;;;;;;7.82;4.95;;;;;;;;;;4976873;28;20435;-78
2022/06/08 13:43:41;;;;;;;8.25;4.93;;;;;;;;;;4967191;28;20137;-79
2022/06/08 13:46:08;;;;;;;10.48;5.82;;;;;;;;;;4978947;28;20124;-79
2022/06/08 13:48:35;;;;;;;18.73;6.32;;;;;;;;;;4968005;28;20034;-79
2022/06/08 13:51:01;;;;;;;19.85;5.80;;;;;;;;;;4942699;28;20037;-79
2022/06/08 13:53:29;;;;;;;11.77;6.25;;;;;;;;;;4965279;28;20360;-79
2022/06/08 13:55:58;;;;;;;21.13;6.45;;;;;;;;;;4965584;28;20031;-79
2022/06/08 13:58:25;;;;;;;9.65;6.05;;;;;;;;;;4967419;28;20579;-79
2022/06/08 14:00:53;;;;;;;11.45;7.18;;;;;;;;;;4978815;28;20478;-79
2022/06/08 14:03:24;;;;;;;13.02;7.05;;;;;;;;;;4963483;28;20275;-79
2022/06/08 14:14:09;;;;;;;20.83;7.97;;;;;;;;;;4981354;28;20069;-80
2022/06/08 14:16:36;;;;;;;22.30;8.65;;;;;;;;;;4961705;28;20109;-79
2022/06/08 14:19:09;;;;;;;18.20;9.18;;;;;;;;;;4965900;28;20482;-78
2022/06/08 14:21:35;;;;;;;19.48;9.07;;;;;;;;;;4959104;28;20109;-79
2022/06/08 14:24:01;;;;;;;19.85;10.25;;;;;;;;;;4968940;28;20113;-79
2022/06/08 14:26:28;;;;;;;19.05;10.27;;;;;;;;;;4965957;28;20581;-79
2022/06/08 14:28:56;;;;;;;19.10;10.40;;;;;;;;;;4964090;28;20088;-79
2022/06/08 14:31:25;;;;;;;24.25;11.98;;;;;;;;;;4962322;28;20403;-79
2022/06/08 14:33:51;;;;;;;19.27;12.40;;;;;;;;;;4961767;28;20034;-79
2022/06/08 14:36:19;;;;;;;23.40;12.98;;;;;;;;;;4961920;28;20499;-79
2022/06/08 14:38:47;;;;;;;23.10;13.25;;;;;;;;;;4980571;28;20422;-79
2022/06/08 14:41:13;;;;;;;26.63;14.93;;;;;;;;;;4962415;28;20062;-79
2022/06/08 14:43:46;;;;;;;28.88;16.70;;;;;;;;;;4966757;28;20073;-79
2022/06/08 14:46:19;;;;;;;27.77;16.17;;;;;;;;;;4967876;28;20033;-79
2022/06/08 14:48:47;;;;;;;33.88;18.10;;;;;;;;;;4966211;28;20077;-79
2022/06/08 14:51:15;;;;;;;29.05;17.65;;;;;;;;;;4965929;28;20026;-80
2022/06/08 14:53:42;;;;;;;30.13;17.48;;;;;;;;;;4978481;28;20030;-80
2022/06/08 14:56:26;;;;;;;30.55;15.15;;;;;;;;;;4966569;28;20490;-80
2022/06/08 14:58:54;;;;;;;25.30;16.40;;;;;;;;;;4970614;28;20518;-79
2022/06/08 15:01:22;;;;;;;28.40;17.90;;;;;;;;;;4963795;28;20026;-80
2022/06/08 15:03:48;;;;;;;27.02;16.70;;;;;;;;;;4971295;28;20061;-80
2022/06/08 15:06:15;;;;;;;32.78;16.98;;;;;;;;;;4968084;28;20042;-80
2022/06/08 15:08:42;;;;;;;23.38;16.35;;;;;;;;;;4970633;28;20065;-81
2022/06/08 15:14:03;;;;;;;29.15;16.92;;;;;;;;;;4984473;28;20112;-80